Time;durP1;ratioP1;P1;durP2;ratioP2;P2;SDS_P1;SDS_P2;PMS_P1;PMS_P2;Temp;Humidity;BMP_temperature;BMP_pressure;BME280_temperature;BME280_humidity;BME280_pressure;Samples;Min_cycle;Max_cycle;Signal;HPM_P1;HPM_P2
2023/09/28 00:01:38;;;;;;;10.27;9.50;;;16.80;99.90;;;;;;4987843;28;20476;-63
2023/09/28 00:04:06;;;;;;;10.10;9.30;;;16.80;99.90;;;;;;4988028;28;20473;-62
2023/09/28 00:06:35;;;;;;;9.70;9.00;;;16.80;99.90;;;;;;4986295;28;20489;-63
2023/09/28 00:09:03;;;;;;;9.97;9.20;;;16.80;99.90;;;;;;4984712;28;20497;-63
2023/09/28 00:11:31;;;;;;;9.40;8.70;;;16.80;99.90;;;;;;4988631;28;20473;-63
2023/09/28 00:13:59;;;;;;;10.13;9.33;;;16.80;99.90;;;;;;4986237;28;20475;-63
2023/09/28 00:16:27;;;;;;;10.40;9.60;;;16.80;99.90;;;;;;4985253;28;21002;-63
2023/09/28 00:18:55;;;;;;;10.23;9.27;;;16.80;99.90;;;;;;4986568;28;20552;-63
2023/09/28 00:21:23;;;;;;;10.00;9.10;;;16.80;99.90;;;;;;4987280;28;20480;-63
2023/09/28 00:23:52;;;;;;;9.40;8.57;;;16.80;99.90;;;;;;4986700;28;20559;-63
2023/09/28 00:26:22;;;;;;;10.37;9.57;;;16.90;99.90;;;;;;4982148;28;20485;-62
2023/09/28 00:28:50;;;;;;;10.77;9.87;;;16.90;99.90;;;;;;4985865;28;20494;-63
2023/09/28 00:31:19;;;;;;;10.80;9.70;;;16.80;99.90;;;;;;4986923;28;20473;-63
2023/09/28 00:33:47;;;;;;;11.10;10.20;;;16.90;99.90;;;;;;4986303;28;20478;-63
2023/09/28 00:36:15;;;;;;;10.50;9.60;;;16.90;99.90;;;;;;4985548;28;20579;-62
2023/09/28 00:38:43;;;;;;;10.77;9.60;;;16.90;99.90;;;;;;4976026;28;20559;-63
2023/09/28 00:41:10;;;;;;;10.13;9.23;;;16.90;99.90;;;;;;4977222;28;20842;-62
2023/09/28 00:43:38;;;;;;;11.33;10.23;;;16.90;99.90;;;;;;4977319;28;20857;-63
2023/09/28 00:46:05;;;;;;;11.03;10.17;;;16.90;99.90;;;;;;4975434;28;20489;-63
2023/09/28 00:48:45;;;;;;;11.03;10.10;;;16.90;99.90;;;;;;4983946;28;20529;-62
2023/09/28 00:51:12;;;;;;;11.50;10.60;;;16.90;99.90;;;;;;4983379;28;21035;-63
2023/09/28 00:53:41;;;;;;;10.70;9.90;;;16.80;99.90;;;;;;4978470;28;20897;-62
2023/09/28 00:56:07;;;;;;;11.23;10.10;;;16.80;99.90;;;;;;4976249;28;20728;-63
2023/09/28 00:58:38;;;;;;;10.33;9.60;;;16.80;99.90;;;;;;4985154;28;20475;-62
2023/09/28 01:01:06;;;;;;;10.90;9.80;;;16.80;99.90;;;;;;4976406;28;20519;-63
2023/09/28 01:03:35;;;;;;;11.70;10.80;;;16.80;99.90;;;;;;4977066;28;21201;-63
2023/09/28 01:06:07;;;;;;;10.83;9.93;;;16.80;99.90;;;;;;4975999;28;20504;-63
2023/09/28 01:08:35;;;;;;;10.60;9.70;;;16.80;99.90;;;;;;4977410;28;20486;-62
2023/09/28 01:11:06;;;;;;;11.80;10.57;;;16.80;99.90;;;;;;4974191;28;20485;-62
2023/09/28 01:13:34;;;;;;;11.17;10.33;;;16.80;99.90;;;;;;4976747;28;20981;-63
2023/09/28 01:16:01;;;;;;;11.47;10.47;;;16.80;99.90;;;;;;4981284;28;20600;-63
2023/09/28 01:18:29;;;;;;;11.50;10.30;;;16.80;99.90;;;;;;4975361;28;20564;-62
2023/09/28 01:20:58;;;;;;;11.13;10.27;;;16.70;99.90;;;;;;4974614;28;20595;-62
2023/09/28 01:23:27;;;;;;;11.20;10.20;;;16.70;99.90;;;;;;4978081;28;20628;-62
2023/09/28 01:25:54;;;;;;;11.53;10.53;;;16.70;99.90;;;;;;4976016;28;21726;-62
2023/09/28 01:28:22;;;;;;;12.40;11.40;;;16.70;99.90;;;;;;4977105;28;20497;-63
2023/09/28 01:30:49;;;;;;;11.60;10.40;;;16.70;99.90;;;;;;4974189;28;20496;-62
2023/09/28 01:33:18;;;;;;;11.80;10.70;;;16.70;99.90;;;;;;4974519;28;20974;-63
2023/09/28 01:35:45;;;;;;;11.20;10.40;;;16.60;99.90;;;;;;4976769;28;20564;-63
2023/09/28 01:38:19;;;;;;;11.30;10.37;;;16.60;99.90;;;;;;4977868;28;20556;-62
2023/09/28 01:40:49;;;;;;;11.93;10.90;;;16.60;99.90;;;;;;4975184;28;21127;-63
2023/09/28 01:43:17;;;;;;;11.80;10.80;;;16.60;99.90;;;;;;4976672;28;20475;-62
2023/09/28 01:45:44;;;;;;;11.03;10.13;;;16.60;99.90;;;;;;4974638;28;20501;-63
2023/09/28 01:48:12;;;;;;;12.50;10.53;;;16.60;99.90;;;;;;4976513;28;20485;-63
2023/09/28 01:50:39;;;;;;;12.10;11.03;;;16.60;99.90;;;;;;4974550;28;20505;-63
2023/09/28 01:53:07;;;;;;;10.40;9.60;;;16.60;99.90;;;;;;4979931;28;20473;-62
2023/09/28 01:55:35;;;;;;;11.37;10.47;;;16.60;99.90;;;;;;4977797;28;20481;-63
2023/09/28 01:58:07;;;;;;;11.60;10.63;;;16.50;99.90;;;;;;4987327;28;20592;-63
2023/09/28 02:00:35;;;;;;;12.17;11.17;;;16.50;99.90;;;;;;4990067;28;20479;-62
2023/09/28 02:03:05;;;;;;;12.03;10.67;;;16.50;99.90;;;;;;4987131;28;20469;-63
2023/09/28 02:05:32;;;;;;;10.90;10.00;;;16.50;99.90;;;;;;4989307;28;20497;-63
2023/09/28 02:08:01;;;;;;;11.57;10.50;;;16.40;99.90;;;;;;4988905;28;20543;-63
2023/09/28 02:10:29;;;;;;;11.30;10.40;;;16.40;99.90;;;;;;4990551;28;20520;-62
2023/09/28 02:12:56;;;;;;;12.30;11.40;;;16.40;99.90;;;;;;4989252;28;20479;-61
2023/09/28 02:15:25;;;;;;;12.20;11.20;;;16.40;99.90;;;;;;4987686;28;20576;-62
2023/09/28 02:17:53;;;;;;;11.80;10.80;;;16.40;99.90;;;;;;4990924;28;20998;-63
2023/09/28 02:20:22;;;;;;;12.20;11.20;;;16.40;99.90;;;;;;4989929;28;20519;-61
2023/09/28 02:22:52;;;;;;;12.90;11.70;;;16.40;99.90;;;;;;4988842;28;20552;-63
2023/09/28 02:25:22;;;;;;;12.63;11.73;;;16.40;99.90;;;;;;4988897;28;21052;-61
2023/09/28 02:27:51;;;;;;;11.87;10.77;;;16.30;99.90;;;;;;4989204;28;20556;-62
2023/09/28 02:30:20;;;;;;;13.23;11.87;;;16.30;99.90;;;;;;4988547;28;20524;-63
2023/09/28 02:32:50;;;;;;;12.47;11.47;;;16.30;99.90;;;;;;4985608;28;20505;-62
2023/09/28 02:35:18;;;;;;;12.67;11.53;;;16.30;99.90;;;;;;4979724;28;20512;-63
2023/09/28 02:37:48;;;;;;;12.03;11.13;;;16.30;99.90;;;;;;4979823;28;20481;-62
2023/09/28 02:40:17;;;;;;;12.50;11.40;;;16.30;99.90;;;;;;4981620;28;20461;-63
2023/09/28 02:42:48;;;;;;;12.27;11.27;;;16.30;99.90;;;;;;4979446;28;20933;-63
2023/09/28 02:45:16;;;;;;;14.50;13.17;;;16.30;99.90;;;;;;4977930;28;20557;-63
2023/09/28 02:47:44;;;;;;;16.13;12.27;;;16.30;99.90;;;;;;4977645;28;20473;-62
2023/09/28 02:50:14;;;;;;;13.10;11.80;;;16.30;99.90;;;;;;4977400;28;21208;-62
2023/09/28 02:52:43;;;;;;;13.77;12.47;;;16.20;99.90;;;;;;4982460;28;20481;-63
2023/09/28 02:55:14;;;;;;;12.63;11.53;;;16.20;99.90;;;;;;4980317;28;20501;-63
2023/09/28 02:57:41;;;;;;;12.73;11.63;;;16.20;99.90;;;;;;4980255;28;20479;-63
2023/09/28 03:00:25;;;;;;;14.40;13.00;;;16.20;99.90;;;;;;4977607;28;20469;-63
2023/09/28 03:02:53;;;;;;;14.10;12.80;;;16.20;99.90;;;;;;4978872;28;20465;-63
2023/09/28 03:05:23;;;;;;;13.13;12.13;;;16.20;99.90;;;;;;4979166;28;20489;-61
2023/09/28 03:07:50;;;;;;;13.87;12.57;;;16.20;99.90;;;;;;4981142;28;20475;-63
2023/09/28 03:10:20;;;;;;;12.97;11.73;;;16.20;99.90;;;;;;4978772;28;20522;-62
2023/09/28 03:12:51;;;;;;;14.20;12.97;;;16.20;99.90;;;;;;4981876;28;20477;-63
2023/09/28 03:15:20;;;;;;;14.40;13.00;;;16.20;99.90;;;;;;4980392;28;20488;-63
2023/09/28 03:17:48;;;;;;;14.17;12.90;;;16.20;99.90;;;;;;4978075;28;20496;-62
2023/09/28 03:20:17;;;;;;;14.13;12.70;;;16.10;99.90;;;;;;4975001;28;20473;-62
2023/09/28 03:22:49;;;;;;;13.30;12.07;;;16.10;99.90;;;;;;4978330;28;20476;-62
2023/09/28 03:25:18;;;;;;;14.10;12.80;;;16.10;99.90;;;;;;4977837;28;20551;-63
2023/09/28 03:27:48;;;;;;;14.87;13.37;;;16.10;99.90;;;;;;4982475;28;20472;-62
2023/09/28 03:30:17;;;;;;;13.97;12.80;;;16.10;99.90;;;;;;4978433;28;20594;-62
2023/09/28 03:32:46;;;;;;;14.60;13.30;;;16.10;99.90;;;;;;4981265;28;20979;-61
2023/09/28 03:35:14;;;;;;;13.80;12.47;;;16.00;99.90;;;;;;4977683;28;20563;-61
2023/09/28 03:37:43;;;;;;;14.90;13.70;;;16.00;99.90;;;;;;4976028;28;20482;-63
2023/09/28 03:40:14;;;;;;;15.00;13.60;;;16.00;99.90;;;;;;4978572;28;20484;-63
2023/09/28 03:42:43;;;;;;;14.27;13.07;;;16.00;99.90;;;;;;4980364;28;21042;-63
2023/09/28 03:45:13;;;;;;;14.60;13.30;;;16.00;99.90;;;;;;4973798;28;20497;-61
2023/09/28 03:47:44;;;;;;;14.67;13.47;;;16.00;99.90;;;;;;4976207;28;20488;-63
2023/09/28 03:50:14;;;;;;;15.57;14.17;;;15.90;99.90;;;;;;4985970;28;20997;-63
2023/09/28 03:52:43;;;;;;;14.60;13.40;;;15.90;99.90;;;;;;4985668;28;20567;-63
2023/09/28 03:55:14;;;;;;;14.63;13.33;;;15.90;99.90;;;;;;4984701;28;20547;-62
2023/09/28 03:57:43;;;;;;;15.80;14.50;;;16.00;99.90;;;;;;4987046;28;20476;-63
2023/09/28 04:00:14;;;;;;;16.33;14.93;;;16.00;99.90;;;;;;4985512;28;20469;-63
2023/09/28 04:02:44;;;;;;;15.23;13.80;;;16.00;99.90;;;;;;4987274;28;20555;-63
2023/09/28 04:05:14;;;;;;;15.37;14.00;;;16.00;99.90;;;;;;4986492;28;20493;-63
2023/09/28 04:07:43;;;;;;;15.63;14.33;;;16.00;99.90;;;;;;4986948;28;20552;-63
2023/09/28 04:10:12;;;;;;;15.53;14.23;;;15.90;99.90;;;;;;4985795;28;20496;-63
2023/09/28 04:12:40;;;;;;;15.37;13.97;;;15.90;99.90;;;;;;4987275;28;20560;-63
2023/09/28 04:15:09;;;;;;;17.90;13.40;;;15.90;99.90;;;;;;4984760;28;20505;-63
2023/09/28 04:17:38;;;;;;;14.60;13.40;;;15.90;99.90;;;;;;4986683;28;20477;-62
2023/09/28 04:20:12;;;;;;;14.93;13.60;;;15.90;99.90;;;;;;4985406;28;20479;-63
2023/09/28 04:22:41;;;;;;;16.43;14.83;;;15.90;99.90;;;;;;4984422;28;21887;-63
2023/09/28 04:25:10;;;;;;;16.70;15.17;;;15.80;99.90;;;;;;4986698;28;20576;-63
2023/09/28 04:27:40;;;;;;;15.00;13.53;;;15.80;99.90;;;;;;4983216;28;20888;-63
2023/09/28 04:30:09;;;;;;;15.17;13.77;;;15.80;99.90;;;;;;4985356;28;20532;-62
2023/09/28 04:32:38;;;;;;;16.37;14.83;;;15.80;99.90;;;;;;4982658;28;20811;-62
2023/09/28 04:35:10;;;;;;;16.20;14.50;;;15.80;99.90;;;;;;4981533;28;20496;-62
2023/09/28 04:37:39;;;;;;;16.50;15.00;;;15.80;99.90;;;;;;4980946;28;20477;-63
2023/09/28 04:40:09;;;;;;;16.07;14.67;;;15.80;99.90;;;;;;4983284;28;20927;-63
2023/09/28 04:42:38;;;;;;;16.10;14.60;;;15.70;99.90;;;;;;4981008;28;20902;-63
2023/09/28 04:45:09;;;;;;;16.37;14.97;;;15.70;99.90;;;;;;4971553;28;21002;-63
2023/09/28 04:47:38;;;;;;;16.17;14.67;;;15.70;99.90;;;;;;4980237;28;20465;-63
2023/09/28 04:50:08;;;;;;;15.97;14.37;;;15.80;99.90;;;;;;4973474;28;20493;-62
2023/09/28 04:52:36;;;;;;;15.53;13.93;;;15.80;99.90;;;;;;4979032;28;20484;-62
2023/09/28 04:55:05;;;;;;;16.60;15.10;;;15.80;99.90;;;;;;4974150;28;20573;-65
2023/09/28 04:57:35;;;;;;;15.27;13.87;;;15.80;99.90;;;;;;4986978;28;20475;-65
2023/09/28 05:00:06;;;;;;;15.57;14.17;;;15.80;99.90;;;;;;4985261;28;20527;-63
2023/09/28 05:02:36;;;;;;;14.87;13.57;;;15.80;99.90;;;;;;4982661;28;20472;-62
2023/09/28 05:05:08;;;;;;;16.73;15.13;;;15.80;99.90;;;;;;4983991;28;20588;-64
2023/09/28 05:07:36;;;;;;;16.00;14.43;;;15.80;99.90;;;;;;4978973;28;20480;-63
2023/09/28 05:10:07;;;;;;;15.30;13.77;;;15.80;99.90;;;;;;4982766;28;20841;-63
2023/09/28 05:12:35;;;;;;;15.33;13.93;;;15.90;99.90;;;;;;4977936;28;20527;-63
2023/09/28 05:15:03;;;;;;;17.00;15.60;;;15.90;99.90;;;;;;4974543;28;20505;-63
2023/09/28 05:17:31;;;;;;;16.60;15.00;;;15.90;99.90;;;;;;4969818;28;20990;-63
2023/09/28 05:20:01;;;;;;;16.53;14.87;;;15.90;99.90;;;;;;4968222;28;20580;-62
2023/09/28 05:22:29;;;;;;;16.77;14.93;;;15.90;99.90;;;;;;4972481;28;20496;-63
2023/09/28 05:24:57;;;;;;;15.70;14.10;;;16.00;99.90;;;;;;4975520;28;20499;-62
2023/09/28 05:27:26;;;;;;;15.43;14.03;;;16.00;99.90;;;;;;4977109;28;20473;-63
2023/09/28 05:29:54;;;;;;;14.87;13.40;;;16.00;99.90;;;;;;4978782;28;20571;-63
2023/09/28 05:32:22;;;;;;;15.80;14.30;;;16.00;99.90;;;;;;4980312;28;20493;-63
2023/09/28 05:34:50;;;;;;;15.90;14.40;;;16.00;99.90;;;;;;4978971;28;20540;-63
2023/09/28 05:37:19;;;;;;;15.47;14.13;;;16.00;99.90;;;;;;4981598;28;20479;-61
2023/09/28 05:39:47;;;;;;;15.67;14.00;;;16.00;99.90;;;;;;4980133;28;20596;-63
2023/09/28 05:42:16;;;;;;;15.30;13.90;;;16.00;99.90;;;;;;4985025;28;20501;-63
2023/09/28 05:44:44;;;;;;;15.23;13.83;;;16.00;99.90;;;;;;4983925;28;20924;-63
2023/09/28 05:47:12;;;;;;;15.23;13.70;;;16.00;99.90;;;;;;4980060;28;20567;-64
2023/09/28 05:49:40;;;;;;;15.67;14.20;;;16.00;99.90;;;;;;4976297;28;20997;-63
2023/09/28 05:52:08;;;;;;;14.07;12.77;;;16.00;99.90;;;;;;4977550;28;20529;-64
2023/09/28 05:54:38;;;;;;;15.97;13.87;;;16.00;99.90;;;;;;4984767;28;20553;-63
2023/09/28 05:57:06;;;;;;;14.63;13.13;;;16.00;99.90;;;;;;4987451;28;20505;-63
2023/09/28 05:59:34;;;;;;;14.80;13.37;;;16.00;99.90;;;;;;4985932;28;20549;-63
2023/09/28 06:02:02;;;;;;;14.67;13.30;;;16.10;99.90;;;;;;4987500;28;20496;-63
2023/09/28 06:04:30;;;;;;;15.10;13.67;;;16.10;99.90;;;;;;4986260;28;20485;-61
2023/09/28 06:06:58;;;;;;;13.27;11.97;;;16.20;99.90;;;;;;4986927;28;20572;-63
2023/09/28 06:09:26;;;;;;;14.57;13.10;;;16.20;99.90;;;;;;4986982;28;20556;-63
2023/09/28 06:11:57;;;;;;;15.53;14.07;;;16.10;99.90;;;;;;4986213;28;20583;-63
2023/09/28 06:14:25;;;;;;;14.13;12.93;;;16.10;99.90;;;;;;4985440;28;20643;-62
2023/09/28 06:16:53;;;;;;;14.87;13.57;;;16.10;99.90;;;;;;4985922;28;20489;-63
2023/09/28 06:19:21;;;;;;;14.07;12.87;;;16.20;99.90;;;;;;4985730;28;20824;-63
2023/09/28 06:21:49;;;;;;;13.97;12.37;;;16.20;99.90;;;;;;4986517;28;20536;-63
2023/09/28 06:24:18;;;;;;;12.90;11.90;;;16.20;99.90;;;;;;4985917;28;21090;-63
2023/09/28 06:26:46;;;;;;;14.30;13.00;;;16.30;99.90;;;;;;4985880;28;20584;-63
2023/09/28 06:29:15;;;;;;;13.70;12.47;;;16.30;99.90;;;;;;4984639;28;20479;-64
2023/09/28 06:31:43;;;;;;;14.17;12.67;;;16.30;99.90;;;;;;4987011;28;21034;-63
2023/09/28 06:34:11;;;;;;;14.77;13.07;;;16.30;99.90;;;;;;4986613;28;20834;-63
2023/09/28 06:36:39;;;;;;;13.57;12.27;;;16.40;99.90;;;;;;4986078;28;20500;-63
2023/09/28 06:39:09;;;;;;;14.33;12.93;;;16.40;99.90;;;;;;4987527;28;20468;-62
2023/09/28 06:41:38;;;;;;;15.27;12.77;;;16.40;99.90;;;;;;4983390;28;21203;-63
2023/09/28 06:44:08;;;;;;;14.23;12.83;;;16.50;99.90;;;;;;4989400;28;20989;-63
2023/09/28 06:46:37;;;;;;;14.13;12.70;;;16.50;99.90;;;;;;4987629;28;20488;-63
2023/09/28 06:49:08;;;;;;;12.90;11.70;;;16.60;99.90;;;;;;4989450;28;20465;-63
2023/09/28 06:51:37;;;;;;;14.03;11.80;;;16.60;99.90;;;;;;4989254;28;20489;-63
2023/09/28 06:54:05;;;;;;;14.57;11.53;;;16.60;99.90;;;;;;4990236;28;20512;-63
2023/09/28 06:56:37;;;;;;;13.33;12.00;;;16.60;99.90;;;;;;4988330;28;20908;-63
2023/09/28 06:59:05;;;;;;;13.90;12.70;;;16.70;99.90;;;;;;4989293;28;20575;-63
2023/09/28 07:01:33;;;;;;;14.10;11.20;;;16.70;99.90;;;;;;4989868;28;20472;-63
2023/09/28 07:04:03;;;;;;;13.70;12.33;;;16.80;99.90;;;;;;4989428;28;20583;-63
2023/09/28 07:06:31;;;;;;;13.90;12.70;;;16.90;99.90;;;;;;4988654;28;20489;-63
2023/09/28 07:08:59;;;;;;;12.47;11.17;;;16.90;99.90;;;;;;4988668;28;20560;-63
2023/09/28 07:11:27;;;;;;;12.37;11.17;;;17.00;99.90;;;;;;4990630;28;20572;-63
2023/09/28 07:13:55;;;;;;;12.40;11.30;;;17.00;99.90;;;;;;4985486;28;20839;-64
2023/09/28 07:16:23;;;;;;;12.30;11.00;;;17.10;99.90;;;;;;4989074;28;20497;-63
2023/09/28 07:18:51;;;;;;;12.73;11.63;;;17.10;99.90;;;;;;4989801;28;20550;-62
2023/09/28 07:21:21;;;;;;;12.00;11.00;;;17.20;99.90;;;;;;4991156;28;20556;-63
2023/09/28 07:23:49;;;;;;;12.70;11.50;;;17.30;99.90;;;;;;4988958;28;20465;-63
2023/09/28 07:26:23;;;;;;;12.03;11.03;;;17.30;99.90;;;;;;4987955;28;20473;-63
2023/09/28 07:28:53;;;;;;;12.70;11.60;;;17.40;99.90;;;;;;4990555;28;20552;-63
2023/09/28 07:31:22;;;;;;;14.17;11.70;;;17.40;99.90;;;;;;4989422;28;20477;-63
2023/09/28 07:33:52;;;;;;;12.53;11.33;;;17.40;99.90;;;;;;4991065;28;20963;-63
2023/09/28 07:36:22;;;;;;;11.20;10.10;;;17.40;99.90;;;;;;4989059;28;20493;-61
2023/09/28 07:38:50;;;;;;;12.27;11.17;;;17.40;99.90;;;;;;4988510;28;20556;-62
2023/09/28 07:41:18;;;;;;;11.33;10.27;;;17.40;99.90;;;;;;4990017;28;20907;-61
2023/09/28 07:43:46;;;;;;;11.17;10.17;;;17.40;99.90;;;;;;4988408;28;20571;-63
2023/09/28 07:46:14;;;;;;;10.63;9.83;;;17.50;99.90;;;;;;4990145;28;20563;-61
2023/09/28 07:48:42;;;;;;;11.03;10.10;;;17.50;99.90;;;;;;4989666;28;20520;-63
2023/09/28 07:51:10;;;;;;;10.70;9.80;;;17.60;99.90;;;;;;4990551;28;20955;-63
2023/09/28 07:53:39;;;;;;;9.90;9.00;;;17.60;99.90;;;;;;4987887;28;20517;-62
2023/09/28 07:56:07;;;;;;;9.70;8.80;;;17.70;99.90;;;;;;4988819;28;21085;-64
2023/09/28 07:58:35;;;;;;;8.83;8.00;;;17.70;99.90;;;;;;4987883;28;20994;-64
2023/09/28 08:01:03;;;;;;;10.13;9.13;;;17.80;99.90;;;;;;4989953;28;20493;-62
2023/09/28 08:03:31;;;;;;;9.50;8.70;;;17.90;99.90;;;;;;4989163;28;20987;-63
2023/09/28 08:05:59;;;;;;;9.70;8.80;;;17.90;99.90;;;;;;4989041;28;20473;-63
2023/09/28 08:08:28;;;;;;;8.40;7.70;;;18.00;99.90;;;;;;4987228;28;20477;-64
2023/09/28 08:10:57;;;;;;;9.40;8.60;;;18.10;99.90;;;;;;4990010;28;20477;-63
2023/09/28 08:13:25;;;;;;;9.60;8.80;;;18.20;99.90;;;;;;4989771;28;21002;-63
2023/09/28 08:15:53;;;;;;;9.27;8.37;;;18.20;99.90;;;;;;4987018;28;21009;-63
2023/09/28 08:18:22;;;;;;;8.73;7.93;;;18.30;99.90;;;;;;4989414;28;20473;-63
2023/09/28 08:20:51;;;;;;;9.07;8.20;;;18.30;99.90;;;;;;4989637;28;20560;-63
2023/09/28 08:23:37;;;;;;;8.97;8.13;;;18.40;99.90;;;;;;4990359;28;20865;-64
2023/09/28 08:26:06;;;;;;;9.23;8.00;;;18.50;99.90;;;;;;4984905;28;20685;-63
2023/09/28 08:28:34;;;;;;;8.17;7.40;;;18.60;99.90;;;;;;4988409;28;20488;-63
2023/09/28 08:31:05;;;;;;;8.80;8.00;;;18.60;99.90;;;;;;4989338;28;20549;-63
2023/09/28 08:33:33;;;;;;;8.53;7.73;;;18.70;99.90;;;;;;4987855;28;21005;-63
2023/09/28 08:36:01;;;;;;;8.03;7.40;;;18.80;99.90;;;;;;4987534;28;20503;-63
2023/09/28 08:38:29;;;;;;;7.77;7.17;;;18.90;99.90;;;;;;4987266;28;20500;-63
2023/09/28 08:41:00;;;;;;;8.40;7.13;;;18.90;99.90;;;;;;4989597;28;20477;-63
2023/09/28 08:43:33;;;;;;;8.00;7.37;;;19.00;99.90;;;;;;4989324;28;20469;-63
2023/09/28 08:46:02;;;;;;;8.60;7.70;;;19.10;99.90;;;;;;4987629;28;20576;-64
2023/09/28 08:48:31;;;;;;;7.00;6.40;;;19.20;99.90;;;;;;4987979;28;20881;-63
2023/09/28 08:51:05;;;;;;;8.30;7.50;;;19.20;99.90;;;;;;4988316;28;20559;-63
2023/09/28 08:53:35;;;;;;;6.43;5.93;;;19.30;99.90;;;;;;4988350;28;20484;-63
2023/09/28 08:56:04;;;;;;;7.00;6.40;;;19.30;99.90;;;;;;4988173;28;20495;-64
2023/09/28 08:58:36;;;;;;;7.00;6.40;;;19.40;99.90;;;;;;4988551;28;20472;-63
2023/09/28 09:01:07;;;;;;;7.77;6.87;;;19.50;99.90;;;;;;4988552;28;20480;-63
2023/09/28 09:03:38;;;;;;;6.47;5.87;;;19.60;99.90;;;;;;4987699;28;20464;-63
2023/09/28 09:06:10;;;;;;;6.90;6.30;;;19.60;99.90;;;;;;4988128;28;20535;-64
2023/09/28 09:08:43;;;;;;;6.60;6.10;;;19.70;99.90;;;;;;4986991;28;20472;-64
2023/09/28 09:11:16;;;;;;;6.80;6.20;;;19.80;99.90;;;;;;4988592;28;24041;-63
2023/09/28 09:13:53;;;;;;;7.10;6.40;;;19.90;99.90;;;;;;4988707;28;20501;-63
2023/09/28 09:16:26;;;;;;;6.97;6.47;;;20.00;99.90;;;;;;4988513;28;20818;-63
2023/09/28 09:18:55;;;;;;;8.30;6.10;;;20.10;99.90;;;;;;4989652;28;20472;-64
2023/09/28 09:21:25;;;;;;;6.53;6.03;;;20.20;99.90;;;;;;4983185;28;20473;-64
2023/09/28 09:24:03;;;;;;;7.60;6.90;;;20.20;99.90;;;;;;4988214;28;20556;-64
2023/09/28 09:26:40;;;;;;;6.83;6.23;;;20.30;99.90;;;;;;4987996;28;20485;-64
2023/09/28 09:29:11;;;;;;;7.00;6.40;;;20.40;99.90;;;;;;4985831;28;20480;-63
2023/09/28 09:31:40;;;;;;;7.10;6.30;;;20.40;99.90;;;;;;4987495;28;21042;-64
2023/09/28 09:34:12;;;;;;;7.20;6.33;;;20.50;99.90;;;;;;4988555;28;20496;-64
2023/09/28 09:36:41;;;;;;;8.67;6.33;;;20.50;99.90;;;;;;4987345;28;20492;-63
2023/09/28 09:39:20;;;;;;;7.00;6.30;;;20.60;99.90;;;;;;4987184;28;20504;-63
2023/09/28 09:41:49;;;;;;;6.70;6.10;;;20.60;99.90;;;;;;4988442;28;20480;-64
2023/09/28 09:44:19;;;;;;;7.33;6.20;;;20.60;99.90;;;;;;4989249;28;20472;-64
2023/09/28 09:46:48;;;;;;;6.33;5.70;;;20.60;99.90;;;;;;4989034;28;20492;-63
2023/09/28 09:49:18;;;;;;;8.03;6.30;;;20.70;99.90;;;;;;4989028;28;20531;-63
2023/09/28 09:51:48;;;;;;;7.23;6.20;;;20.70;99.90;;;;;;4987644;28;21037;-63
2023/09/28 09:54:17;;;;;;;6.40;5.90;;;20.80;99.90;;;;;;4987599;28;20503;-64
2023/09/28 09:56:47;;;;;;;5.47;5.07;;;20.80;99.90;;;;;;4984792;28;20497;-64
2023/09/28 09:59:16;;;;;;;5.60;5.10;;;20.80;99.90;;;;;;4986169;28;20559;-64
2023/09/28 10:01:48;;;;;;;5.80;5.20;;;20.90;99.90;;;;;;4988021;28;20473;-63
2023/09/28 10:04:17;;;;;;;5.80;5.30;;;21.00;99.90;;;;;;4985958;28;20567;-63
2023/09/28 10:06:48;;;;;;;4.90;4.50;;;21.00;99.90;;;;;;4985568;28;20492;-63
2023/09/28 10:09:18;;;;;;;6.53;4.83;;;21.10;99.90;;;;;;4986734;28;20566;-64
2023/09/28 10:11:48;;;;;;;6.00;5.50;;;21.20;99.90;;;;;;4984971;28;20501;-64
2023/09/28 10:14:18;;;;;;;6.83;5.23;;;21.30;99.90;;;;;;4986538;28;20536;-64
2023/09/28 10:16:49;;;;;;;5.27;4.63;;;21.40;99.90;;;;;;4986173;28;20496;-64
2023/09/28 10:19:21;;;;;;;5.73;5.13;;;21.50;99.90;;;;;;4991496;28;20473;-64
2023/09/28 10:21:51;;;;;;;6.07;5.00;;;21.60;99.90;;;;;;4991352;28;20552;-64
2023/09/28 10:24:25;;;;;;;5.80;5.00;;;21.70;99.90;;;;;;4990737;28;20492;-63
2023/09/28 10:26:54;;;;;;;5.20;4.80;;;21.80;99.90;;;;;;4990626;28;20493;-64
2023/09/28 10:29:28;;;;;;;4.50;4.20;;;21.90;99.90;;;;;;4987877;28;20493;-62
2023/09/28 10:31:59;;;;;;;5.20;4.70;;;22.00;99.90;;;;;;4987722;28;20595;-64
2023/09/28 10:34:29;;;;;;;5.13;4.73;;;22.10;99.90;;;;;;4988949;28;20487;-64
2023/09/28 10:37:23;;;;;;;5.13;4.50;;;22.10;99.90;;;;;;4989709;28;20527;-63
2023/09/28 10:39:54;;;;;;;4.60;4.20;;;22.20;99.90;;;;;;4990765;28;20472;-64
2023/09/28 10:42:23;;;;;;;4.80;4.30;;;22.20;99.90;;;;;;4988233;28;20570;-63
2023/09/28 10:44:51;;;;;;;6.00;4.60;;;22.30;99.90;;;;;;4990456;28;20827;-63
2023/09/28 10:47:22;;;;;;;5.00;4.50;;;22.40;99.90;;;;;;4989759;28;20472;-64
2023/09/28 10:49:59;;;;;;;5.00;4.27;;;22.40;99.90;;;;;;4991384;28;20477;-64
2023/09/28 10:52:28;;;;;;;4.50;3.87;;;22.60;99.90;;;;;;4989597;28;20559;-63
2023/09/28 10:54:57;;;;;;;4.87;4.37;;;22.70;99.90;;;;;;4987555;28;20543;-63
2023/09/28 10:57:31;;;;;;;5.73;4.57;;;22.70;99.90;;;;;;4990152;28;20469;-63
2023/09/28 11:00:01;;;;;;;4.97;4.50;;;22.70;99.90;;;;;;4988978;28;20539;-64
2023/09/28 11:02:35;;;;;;;4.73;4.33;;;22.70;99.90;;;;;;4990737;28;20993;-64
2023/09/28 11:05:07;;;;;;;5.50;4.53;;;22.90;99.90;;;;;;4990438;28;20571;-64
2023/09/28 11:07:36;;;;;;;5.20;4.60;;;23.00;99.90;;;;;;4989862;28;20473;-64
2023/09/28 11:10:04;;;;;;;5.00;4.57;;;23.00;99.90;;;;;;4989513;28;20501;-64
2023/09/28 11:12:32;;;;;;;8.10;5.10;;;23.10;99.90;;;;;;4990170;28;20543;-64
2023/09/28 11:15:01;;;;;;;5.40;4.90;;;23.20;99.90;;;;;;4989285;28;21018;-64
2023/09/28 11:17:31;;;;;;;5.00;4.60;;;23.20;99.90;;;;;;4988782;28;20875;-63
2023/09/28 11:19:59;;;;;;;5.80;4.77;;;23.30;99.90;;;;;;4983656;28;20476;-64
2023/09/28 11:22:29;;;;;;;5.50;4.97;;;23.40;99.90;;;;;;4990493;28;20501;-63
2023/09/28 11:24:57;;;;;;;6.57;5.47;;;23.40;99.90;;;;;;4989522;28;20612;-64
2023/09/28 11:27:25;;;;;;;6.93;5.20;;;23.40;99.90;;;;;;4990793;28;20900;-63
2023/09/28 11:29:56;;;;;;;7.10;5.23;;;23.50;99.90;;;;;;4988496;28;20516;-64
2023/09/28 11:32:25;;;;;;;7.73;5.67;;;23.60;99.90;;;;;;4990445;28;20998;-64
2023/09/28 11:34:54;;;;;;;5.63;4.63;;;23.70;99.90;;;;;;4987382;28;20563;-64
2023/09/28 11:37:24;;;;;;;6.60;4.90;;;23.80;99.90;;;;;;4988550;28;20509;-62
2023/09/28 11:39:52;;;;;;;6.07;5.47;;;23.80;99.90;;;;;;4990407;28;20470;-63
2023/09/28 11:42:21;;;;;;;5.93;5.10;;;23.80;99.90;;;;;;4990326;28;20469;-64
2023/09/28 11:44:50;;;;;;;6.00;5.47;;;23.60;99.90;;;;;;4990180;28;20935;-64
2023/09/28 11:47:20;;;;;;;5.97;5.10;;;23.50;99.90;;;;;;4990349;28;20482;-64
2023/09/28 11:49:49;;;;;;;7.53;5.10;;;23.40;99.90;;;;;;4988689;28;20472;-64
2023/09/28 11:52:18;;;;;;;5.80;5.30;;;23.20;99.90;;;;;;4989760;28;20560;-64
2023/09/28 11:54:48;;;;;;;5.30;4.80;;;23.10;99.90;;;;;;4989662;28;20563;-64
2023/09/28 11:57:16;;;;;;;5.40;4.90;;;23.10;99.90;;;;;;4989926;28;20564;-63
2023/09/28 11:59:45;;;;;;;5.10;4.53;;;23.10;99.90;;;;;;4989222;28;20551;-63
2023/09/28 12:02:13;;;;;;;7.70;5.10;;;23.20;99.90;;;;;;4990447;28;20476;-64
2023/09/28 12:04:41;;;;;;;5.93;5.40;;;23.20;99.90;;;;;;4983154;28;20497;-62
2023/09/28 12:07:09;;;;;;;6.57;5.07;;;23.30;99.90;;;;;;4980797;28;21086;-63
2023/09/28 12:09:39;;;;;;;6.07;4.73;;;23.40;99.90;;;;;;4982259;28;20505;-64
2023/09/28 12:12:21;;;;;;;5.87;4.70;;;23.60;99.90;;;;;;4984324;28;20898;-64
2023/09/28 12:14:49;;;;;;;7.73;5.30;;;24.00;99.90;;;;;;4981368;28;20525;-64
2023/09/28 12:17:18;;;;;;;4.53;4.13;;;24.40;99.90;;;;;;4984122;28;20488;-64
2023/09/28 12:19:46;;;;;;;6.03;4.43;;;24.80;99.90;;;;;;4978302;28;20998;-64
2023/09/28 12:22:14;;;;;;;5.20;4.50;;;25.10;99.90;;;;;;4981314;28;20962;-64
2023/09/28 12:24:43;;;;;;;4.27;3.87;;;25.30;99.90;;;;;;4980402;28;20489;-64
2023/09/28 12:27:13;;;;;;;4.30;3.90;;;25.70;99.90;;;;;;4982172;28;20531;-64
2023/09/28 12:29:41;;;;;;;4.63;3.90;;;26.10;99.90;;;;;;4978560;28;20468;-64
2023/09/28 12:32:09;;;;;;;5.57;4.20;;;26.20;99.90;;;;;;4982320;28;20476;-65
2023/09/28 12:34:37;;;;;;;4.30;3.90;;;26.30;99.90;;;;;;4975189;28;20500;-65
2023/09/28 12:37:05;;;;;;;5.50;4.23;;;26.50;99.90;;;;;;4984182;28;20481;-65
2023/09/28 12:39:34;;;;;;;4.50;3.87;;;27.30;99.90;;;;;;4985569;28;20917;-65
2023/09/28 12:42:03;;;;;;;5.30;3.90;;;28.40;99.90;;;;;;4984041;28;20930;-65
2023/09/28 12:44:32;;;;;;;5.53;3.87;;;29.80;99.90;;;;;;4982966;28;20493;-65
2023/09/28 12:47:00;;;;;;;6.13;3.90;;;30.00;99.90;;;;;;4982541;28;20925;-63